sensor_id;sensor_type;location;lat;lon;timestamp;P1;durP1;ratioP1;P2;durP2;ratioP2
65665;SDS011;52365;47.464;18.976;2024-03-08T00:00:02;26.50;;;15.95;;
65665;SDS011;52365;47.464;18.976;2024-03-08T00:00:33;26.80;;;15.30;;
65665;SDS011;52365;47.464;18.976;2024-03-08T00:00:54;26.90;;;15.98;;
65665;SDS011;52365;47.464;18.976;2024-03-08T00:01:15;28.20;;;16.15;;
65665;SDS011;52365;47.464;18.976;2024-03-08T00:01:37;29.40;;;16.62;;
65665;SDS011;52365;47.464;18.976;2024-03-08T00:01:57;27.00;;;16.45;;
65665;SDS011;52365;47.464;18.976;2024-03-08T00:02:18;28.95;;;16.40;;
65665;SDS011;52365;47.464;18.976;2024-03-08T00:02:40;31.55;;;17.12;;
65665;SDS011;52365;47.464;18.976;2024-03-08T00:03:02;30.65;;;16.83;;
65665;SDS011;52365;47.464;18.976;2024-03-08T00:03:23;28.08;;;16.55;;
65665;SDS011;52365;47.464;18.976;2024-03-08T00:03:44;29.27;;;16.12;;
65665;SDS011;52365;47.464;18.976;2024-03-08T00:04:05;27.25;;;15.77;;
65665;SDS011;52365;47.464;18.976;2024-03-08T00:04:26;28.35;;;15.90;;
65665;SDS011;52365;47.464;18.976;2024-03-08T00:04:47;29.33;;;16.27;;
65665;SDS011;52365;47.464;18.976;2024-03-08T00:05:08;28.95;;;16.55;;
65665;SDS011;52365;47.464;18.976;2024-03-08T00:05:29;30.58;;;16.98;;
65665;SDS011;52365;47.464;18.976;2024-03-08T00:05:50;28.67;;;16.37;;
65665;SDS011;52365;47.464;18.976;2024-03-08T00:06:11;29.37;;;16.62;;
65665;SDS011;52365;47.464;18.976;2024-03-08T00:06:32;30.65;;;16.92;;
65665;SDS011;52365;47.464;18.976;2024-03-08T00:06:53;32.38;;;17.65;;
65665;SDS011;52365;47.464;18.976;2024-03-08T00:07:14;29.95;;;16.95;;
65665;SDS011;52365;47.464;18.976;2024-03-08T00:07:35;28.85;;;16.50;;
65665;SDS011;52365;47.464;18.976;2024-03-08T00:07:56;29.10;;;16.62;;
65665;SDS011;52365;47.464;18.976;2024-03-08T00:08:17;28.65;;;16.70;;
65665;SDS011;52365;47.464;18.976;2024-03-08T00:08:38;27.52;;;16.40;;
65665;SDS011;52365;47.464;18.976;2024-03-08T00:08:59;26.77;;;16.05;;
65665;SDS011;52365;47.464;18.976;2024-03-08T00:09:20;26.42;;;15.98;;
65665;SDS011;52365;47.464;18.976;2024-03-08T00:09:42;28.70;;;16.77;;
65665;SDS011;52365;47.464;18.976;2024-03-08T00:10:06;29.83;;;17.10;;
65665;SDS011;52365;47.464;18.976;2024-03-08T00:10:31;34.03;;;17.35;;
65665;SDS011;52365;47.464;18.976;2024-03-08T00:10:52;30.65;;;16.58;;
65665;SDS011;52365;47.464;18.976;2024-03-08T00:11:13;27.83;;;16.42;;
65665;SDS011;52365;47.464;18.976;2024-03-08T00:11:34;28.80;;;16.35;;
65665;SDS011;52365;47.464;18.976;2024-03-08T00:11:55;31.60;;;17.15;;
65665;SDS011;52365;47.464;18.976;2024-03-08T00:12:16;31.08;;;17.17;;
65665;SDS011;52365;47.464;18.976;2024-03-08T00:12:37;30.35;;;16.80;;
65665;SDS011;52365;47.464;18.976;2024-03-08T00:12:59;32.28;;;17.48;;
65665;SDS011;52365;47.464;18.976;2024-03-08T00:13:20;30.98;;;17.48;;
65665;SDS011;52365;47.464;18.976;2024-03-08T00:13:41;31.60;;;17.02;;
65665;SDS011;52365;47.464;18.976;2024-03-08T00:14:02;30.83;;;17.10;;
65665;SDS011;52365;47.464;18.976;2024-03-08T00:14:27;30.40;;;16.75;;
65665;SDS011;52365;47.464;18.976;2024-03-08T00:14:48;31.15;;;16.70;;
65665;SDS011;52365;47.464;18.976;2024-03-08T00:15:09;31.87;;;17.42;;
65665;SDS011;52365;47.464;18.976;2024-03-08T00:15:34;29.30;;;17.15;;
65665;SDS011;52365;47.464;18.976;2024-03-08T00:15:55;29.48;;;17.60;;
65665;SDS011;52365;47.464;18.976;2024-03-08T00:16:18;30.80;;;17.87;;
65665;SDS011;52365;47.464;18.976;2024-03-08T00:16:40;31.05;;;17.75;;
65665;SDS011;52365;47.464;18.976;2024-03-08T00:17:04;31.02;;;17.90;;
65665;SDS011;52365;47.464;18.976;2024-03-08T00:17:25;31.25;;;18.10;;
65665;SDS011;52365;47.464;18.976;2024-03-08T00:17:46;31.92;;;18.00;;
65665;SDS011;52365;47.464;18.976;2024-03-08T00:18:07;34.83;;;18.92;;
65665;SDS011;52365;47.464;18.976;2024-03-08T00:18:23;34.95;;;18.27;;
65665;SDS011;52365;47.464;18.976;2024-03-08T00:18:44;33.65;;;17.12;;
65665;SDS011;52365;47.464;18.976;2024-03-08T00:19:05;31.48;;;17.70;;
65665;SDS011;52365;47.464;18.976;2024-03-08T00:19:26;31.87;;;17.83;;
65665;SDS011;52365;47.464;18.976;2024-03-08T00:19:46;32.22;;;17.55;;
65665;SDS011;52365;47.464;18.976;2024-03-08T00:20:07;34.95;;;18.30;;
65665;SDS011;52365;47.464;18.976;2024-03-08T00:20:31;32.90;;;17.85;;
65665;SDS011;52365;47.464;18.976;2024-03-08T00:20:52;34.45;;;17.75;;
65665;SDS011;52365;47.464;18.976;2024-03-08T00:21:13;33.40;;;17.87;;
65665;SDS011;52365;47.464;18.976;2024-03-08T00:21:35;32.47;;;17.10;;
65665;SDS011;52365;47.464;18.976;2024-03-08T00:21:56;30.33;;;16.48;;
65665;SDS011;52365;47.464;18.976;2024-03-08T00:22:17;29.70;;;17.20;;
65665;SDS011;52365;47.464;18.976;2024-03-08T00:22:38;32.42;;;17.83;;
65665;SDS011;52365;47.464;18.976;2024-03-08T00:22:59;32.00;;;17.50;;
65665;SDS011;52365;47.464;18.976;2024-03-08T00:23:20;33.60;;;17.90;;
65665;SDS011;52365;47.464;18.976;2024-03-08T00:23:41;32.97;;;18.00;;
65665;SDS011;52365;47.464;18.976;2024-03-08T00:24:02;33.35;;;17.87;;
65665;SDS011;52365;47.464;18.976;2024-03-08T00:24:18;32.83;;;17.70;;
65665;SDS011;52365;47.464;18.976;2024-03-08T00:24:39;32.70;;;18.27;;
65665;SDS011;52365;47.464;18.976;2024-03-08T00:25:00;32.80;;;17.70;;
65665;SDS011;52365;47.464;18.976;2024-03-08T00:25:22;32.50;;;17.95;;
65665;SDS011;52365;47.464;18.976;2024-03-08T00:25:43;33.40;;;18.23;;
65665;SDS011;52365;47.464;18.976;2024-03-08T00:26:04;33.92;;;18.60;;
65665;SDS011;52365;47.464;18.976;2024-03-08T00:26:25;33.93;;;18.23;;
65665;SDS011;52365;47.464;18.976;2024-03-08T00:26:46;33.88;;;18.02;;
65665;SDS011;52365;47.464;18.976;2024-03-08T00:27:07;32.50;;;18.10;;
65665;SDS011;52365;47.464;18.976;2024-03-08T00:27:29;32.10;;;18.12;;
65665;SDS011;52365;47.464;18.976;2024-03-08T00:27:54;33.85;;;18.90;;
65665;SDS011;52365;47.464;18.976;2024-03-08T00:28:17;32.38;;;17.55;;
65665;SDS011;52365;47.464;18.976;2024-03-08T00:28:39;33.10;;;17.87;;
65665;SDS011;52365;47.464;18.976;2024-03-08T00:29:00;33.92;;;18.23;;
65665;SDS011;52365;47.464;18.976;2024-03-08T00:29:21;31.92;;;17.83;;
65665;SDS011;52365;47.464;18.976;2024-03-08T00:29:42;31.83;;;18.23;;
65665;SDS011;52365;47.464;18.976;2024-03-08T00:30:03;33.17;;;17.65;;
65665;SDS011;52365;47.464;18.976;2024-03-08T00:30:26;33.70;;;17.73;;
65665;SDS011;52365;47.464;18.976;2024-03-08T00:30:47;32.30;;;17.85;;
65665;SDS011;52365;47.464;18.976;2024-03-08T00:31:08;29.65;;;17.65;;
65665;SDS011;52365;47.464;18.976;2024-03-08T00:31:29;32.17;;;18.15;;
65665;SDS011;52365;47.464;18.976;2024-03-08T00:31:52;33.67;;;18.05;;
65665;SDS011;52365;47.464;18.976;2024-03-08T00:32:13;32.20;;;18.02;;
65665;SDS011;52365;47.464;18.976;2024-03-08T00:32:34;31.40;;;17.40;;
65665;SDS011;52365;47.464;18.976;2024-03-08T00:32:55;31.23;;;17.85;;
65665;SDS011;52365;47.464;18.976;2024-03-08T00:33:16;33.92;;;18.25;;
65665;SDS011;52365;47.464;18.976;2024-03-08T00:33:36;33.00;;;17.55;;
65665;SDS011;52365;47.464;18.976;2024-03-08T00:33:57;32.70;;;17.92;;
65665;SDS011;52365;47.464;18.976;2024-03-08T00:34:18;33.30;;;18.62;;
65665;SDS011;52365;47.464;18.976;2024-03-08T00:34:39;34.15;;;17.95;;
65665;SDS011;52365;47.464;18.976;2024-03-08T00:35:00;33.92;;;17.37;;
65665;SDS011;52365;47.464;18.976;2024-03-08T00:35:22;31.67;;;17.42;;
65665;SDS011;52365;47.464;18.976;2024-03-08T00:35:43;32.97;;;18.00;;
65665;SDS011;52365;47.464;18.976;2024-03-08T00:36:04;31.23;;;17.87;;
65665;SDS011;52365;47.464;18.976;2024-03-08T00:36:25;30.12;;;16.75;;
65665;SDS011;52365;47.464;18.976;2024-03-08T00:36:46;28.75;;;16.87;;
65665;SDS011;52365;47.464;18.976;2024-03-08T00:37:08;29.65;;;17.50;;
65665;SDS011;52365;47.464;18.976;2024-03-08T00:37:24;31.55;;;17.62;;
65665;SDS011;52365;47.464;18.976;2024-03-08T00:37:45;31.80;;;16.98;;
65665;SDS011;52365;47.464;18.976;2024-03-08T00:38:07;29.60;;;16.50;;
65665;SDS011;52365;47.464;18.976;2024-03-08T00:38:28;31.33;;;17.15;;
65665;SDS011;52365;47.464;18.976;2024-03-08T00:38:49;32.28;;;17.70;;
65665;SDS011;52365;47.464;18.976;2024-03-08T00:39:10;30.27;;;16.52;;
65665;SDS011;52365;47.464;18.976;2024-03-08T00:39:32;29.65;;;16.70;;
65665;SDS011;52365;47.464;18.976;2024-03-08T00:39:53;31.55;;;17.17;;
65665;SDS011;52365;47.464;18.976;2024-03-08T00:40:14;31.45;;;17.25;;
65665;SDS011;52365;47.464;18.976;2024-03-08T00:40:35;28.65;;;16.80;;
65665;SDS011;52365;47.464;18.976;2024-03-08T00:40:56;29.58;;;16.85;;
65665;SDS011;52365;47.464;18.976;2024-03-08T00:41:17;30.35;;;16.80;;
65665;SDS011;52365;47.464;18.976;2024-03-08T00:41:39;32.28;;;17.20;;
65665;SDS011;52365;47.464;18.976;2024-03-08T00:42:00;32.67;;;17.45;;
65665;SDS011;52365;47.464;18.976;2024-03-08T00:42:20;32.03;;;18.20;;
65665;SDS011;52365;47.464;18.976;2024-03-08T00:42:41;31.42;;;17.65;;
65665;SDS011;52365;47.464;18.976;2024-03-08T00:43:04;31.92;;;17.48;;
65665;SDS011;52365;47.464;18.976;2024-03-08T00:43:25;31.05;;;17.37;;
65665;SDS011;52365;47.464;18.976;2024-03-08T00:43:46;32.50;;;17.52;;
65665;SDS011;52365;47.464;18.976;2024-03-08T00:44:08;32.30;;;17.40;;
65665;SDS011;52365;47.464;18.976;2024-03-08T00:44:30;33.45;;;17.48;;
65665;SDS011;52365;47.464;18.976;2024-03-08T00:44:52;34.13;;;17.77;;
65665;SDS011;52365;47.464;18.976;2024-03-08T00:45:13;31.35;;;17.90;;
65665;SDS011;52365;47.464;18.976;2024-03-08T00:45:34;30.88;;;17.67;;
65665;SDS011;52365;47.464;18.976;2024-03-08T00:45:55;29.67;;;17.45;;
65665;SDS011;52365;47.464;18.976;2024-03-08T00:46:16;31.58;;;17.87;;
65665;SDS011;52365;47.464;18.976;2024-03-08T00:46:37;32.03;;;18.10;;
65665;SDS011;52365;47.464;18.976;2024-03-08T00:46:58;33.45;;;18.05;;
65665;SDS011;52365;47.464;18.976;2024-03-08T00:47:19;33.55;;;18.45;;
65665;SDS011;52365;47.464;18.976;2024-03-08T00:47:40;32.88;;;18.08;;
65665;SDS011;52365;47.464;18.976;2024-03-08T00:48:04;31.67;;;17.70;;
65665;SDS011;52365;47.464;18.976;2024-03-08T00:48:26;35.53;;;18.35;;
65665;SDS011;52365;47.464;18.976;2024-03-08T00:48:47;31.90;;;18.15;;
65665;SDS011;52365;47.464;18.976;2024-03-08T00:49:08;32.38;;;17.87;;
65665;SDS011;52365;47.464;18.976;2024-03-08T00:49:30;32.60;;;17.95;;
65665;SDS011;52365;47.464;18.976;2024-03-08T00:49:51;31.70;;;17.65;;
65665;SDS011;52365;47.464;18.976;2024-03-08T00:50:12;32.90;;;18.45;;
65665;SDS011;52365;47.464;18.976;2024-03-08T00:50:33;32.00;;;17.75;;
65665;SDS011;52365;47.464;18.976;2024-03-08T00:50:54;31.87;;;17.80;;
65665;SDS011;52365;47.464;18.976;2024-03-08T00:51:15;33.85;;;18.12;;
65665;SDS011;52365;47.464;18.976;2024-03-08T00:51:36;33.03;;;17.90;;
65665;SDS011;52365;47.464;18.976;2024-03-08T00:51:57;31.45;;;17.87;;
65665;SDS011;52365;47.464;18.976;2024-03-08T00:52:18;33.10;;;18.05;;
65665;SDS011;52365;47.464;18.976;2024-03-08T00:52:39;33.92;;;18.35;;
65665;SDS011;52365;47.464;18.976;2024-03-08T00:53:01;32.30;;;18.20;;
65665;SDS011;52365;47.464;18.976;2024-03-08T00:53:22;30.12;;;17.58;;
65665;SDS011;52365;47.464;18.976;2024-03-08T00:53:43;30.85;;;17.67;;
65665;SDS011;52365;47.464;18.976;2024-03-08T00:54:04;30.60;;;17.15;;
65665;SDS011;52365;47.464;18.976;2024-03-08T00:54:25;31.08;;;17.10;;
65665;SDS011;52365;47.464;18.976;2024-03-08T00:54:46;32.35;;;17.40;;
65665;SDS011;52365;47.464;18.976;2024-03-08T00:55:07;31.55;;;17.73;;
65665;SDS011;52365;47.464;18.976;2024-03-08T00:55:31;34.22;;;18.10;;
65665;SDS011;52365;47.464;18.976;2024-03-08T00:55:52;32.08;;;17.83;;
65665;SDS011;52365;47.464;18.976;2024-03-08T00:56:13;28.98;;;17.37;;
65665;SDS011;52365;47.464;18.976;2024-03-08T00:56:34;31.15;;;17.45;;
65665;SDS011;52365;47.464;18.976;2024-03-08T00:56:56;30.80;;;17.50;;
65665;SDS011;52365;47.464;18.976;2024-03-08T00:57:16;30.67;;;17.65;;
65665;SDS011;52365;47.464;18.976;2024-03-08T00:57:37;31.17;;;17.45;;
65665;SDS011;52365;47.464;18.976;2024-03-08T00:57:59;28.35;;;16.80;;
65665;SDS011;52365;47.464;18.976;2024-03-08T00:58:20;30.70;;;17.55;;
65665;SDS011;52365;47.464;18.976;2024-03-08T00:58:41;33.65;;;17.98;;
65665;SDS011;52365;47.464;18.976;2024-03-08T00:59:02;32.40;;;17.52;;
65665;SDS011;52365;47.464;18.976;2024-03-08T00:59:23;31.50;;;17.42;;
65665;SDS011;52365;47.464;18.976;2024-03-08T00:59:44;32.03;;;17.05;;
65665;SDS011;52365;47.464;18.976;2024-03-08T01:00:06;29.83;;;16.67;;
65665;SDS011;52365;47.464;18.976;2024-03-08T01:00:30;31.12;;;17.62;;
65665;SDS011;52365;47.464;18.976;2024-03-08T01:00:51;30.00;;;17.02;;
65665;SDS011;52365;47.464;18.976;2024-03-08T01:01:15;30.37;;;17.42;;
65665;SDS011;52365;47.464;18.976;2024-03-08T01:01:39;31.12;;;17.27;;
65665;SDS011;52365;47.464;18.976;2024-03-08T01:02:00;30.70;;;17.40;;
65665;SDS011;52365;47.464;18.976;2024-03-08T01:02:22;29.87;;;16.83;;
65665;SDS011;52365;47.464;18.976;2024-03-08T01:02:43;33.40;;;18.00;;
65665;SDS011;52365;47.464;18.976;2024-03-08T01:03:04;31.45;;;17.92;;
65665;SDS011;52365;47.464;18.976;2024-03-08T01:03:25;30.88;;;17.25;;
65665;SDS011;52365;47.464;18.976;2024-03-08T01:03:47;32.92;;;17.92;;
65665;SDS011;52365;47.464;18.976;2024-03-08T01:04:09;31.00;;;17.20;;
65665;SDS011;52365;47.464;18.976;2024-03-08T01:04:30;31.45;;;17.95;;
65665;SDS011;52365;47.464;18.976;2024-03-08T01:04:52;31.45;;;17.90;;
65665;SDS011;52365;47.464;18.976;2024-03-08T01:05:13;31.73;;;17.60;;
65665;SDS011;52365;47.464;18.976;2024-03-08T01:05:34;29.73;;;17.00;;
65665;SDS011;52365;47.464;18.976;2024-03-08T01:05:55;31.12;;;17.15;;
65665;SDS011;52365;47.464;18.976;2024-03-08T01:06:16;30.25;;;17.55;;
65665;SDS011;52365;47.464;18.976;2024-03-08T01:06:32;29.05;;;17.52;;
65665;SDS011;52365;47.464;18.976;2024-03-08T01:06:48;29.60;;;17.30;;
65665;SDS011;52365;47.464;18.976;2024-03-08T01:07:09;29.27;;;17.00;;
65665;SDS011;52365;47.464;18.976;2024-03-08T01:07:31;29.37;;;16.92;;
65665;SDS011;52365;47.464;18.976;2024-03-08T01:07:52;29.50;;;17.12;;
65665;SDS011;52365;47.464;18.976;2024-03-08T01:08:12;32.78;;;17.62;;
65665;SDS011;52365;47.464;18.976;2024-03-08T01:08:33;32.33;;;17.55;;
65665;SDS011;52365;47.464;18.976;2024-03-08T01:08:54;32.25;;;17.35;;
65665;SDS011;52365;47.464;18.976;2024-03-08T01:09:15;31.87;;;17.40;;
65665;SDS011;52365;47.464;18.976;2024-03-08T01:09:38;32.15;;;17.60;;
65665;SDS011;52365;47.464;18.976;2024-03-08T01:09:58;33.35;;;17.58;;
65665;SDS011;52365;47.464;18.976;2024-03-08T01:10:19;31.67;;;17.92;;
65665;SDS011;52365;47.464;18.976;2024-03-08T01:10:40;30.67;;;17.45;;
65665;SDS011;52365;47.464;18.976;2024-03-08T01:11:01;31.58;;;18.10;;
65665;SDS011;52365;47.464;18.976;2024-03-08T01:11:22;30.67;;;17.80;;
65665;SDS011;52365;47.464;18.976;2024-03-08T01:11:43;31.67;;;17.62;;
65665;SDS011;52365;47.464;18.976;2024-03-08T01:12:04;32.40;;;18.30;;
65665;SDS011;52365;47.464;18.976;2024-03-08T01:12:28;31.08;;;18.15;;
65665;SDS011;52365;47.464;18.976;2024-03-08T01:12:49;30.25;;;17.40;;
65665;SDS011;52365;47.464;18.976;2024-03-08T01:13:10;32.85;;;17.98;;
65665;SDS011;52365;47.464;18.976;2024-03-08T01:13:31;32.95;;;17.73;;
65665;SDS011;52365;47.464;18.976;2024-03-08T01:13:52;31.12;;;18.00;;
65665;SDS011;52365;47.464;18.976;2024-03-08T01:14:14;30.42;;;17.50;;
65665;SDS011;52365;47.464;18.976;2024-03-08T01:14:34;32.92;;;18.27;;
65665;SDS011;52365;47.464;18.976;2024-03-08T01:14:56;31.35;;;18.00;;
65665;SDS011;52365;47.464;18.976;2024-03-08T01:15:18;31.10;;;17.87;;
65665;SDS011;52365;47.464;18.976;2024-03-08T01:15:40;31.12;;;17.90;;
65665;SDS011;52365;47.464;18.976;2024-03-08T01:16:02;32.35;;;17.83;;
65665;SDS011;52365;47.464;18.976;2024-03-08T01:16:23;32.67;;;18.40;;
65665;SDS011;52365;47.464;18.976;2024-03-08T01:16:44;31.67;;;17.92;;
65665;SDS011;52365;47.464;18.976;2024-03-08T01:17:05;31.67;;;17.98;;
65665;SDS011;52365;47.464;18.976;2024-03-08T01:17:26;31.20;;;17.67;;
65665;SDS011;52365;47.464;18.976;2024-03-08T01:17:47;32.25;;;17.95;;
65665;SDS011;52365;47.464;18.976;2024-03-08T01:18:08;30.30;;;17.17;;
65665;SDS011;52365;47.464;18.976;2024-03-08T01:18:29;32.35;;;18.02;;
65665;SDS011;52365;47.464;18.976;2024-03-08T01:18:50;32.38;;;18.52;;
65665;SDS011;52365;47.464;18.976;2024-03-08T01:19:11;31.92;;;18.10;;
65665;SDS011;52365;47.464;18.976;2024-03-08T01:19:32;30.52;;;17.48;;
65665;SDS011;52365;47.464;18.976;2024-03-08T01:19:53;31.80;;;17.70;;
65665;SDS011;52365;47.464;18.976;2024-03-08T01:20:14;32.95;;;18.17;;
65665;SDS011;52365;47.464;18.976;2024-03-08T01:20:35;32.47;;;18.45;;
65665;SDS011;52365;47.464;18.976;2024-03-08T01:20:56;30.95;;;17.42;;
65665;SDS011;52365;47.464;18.976;2024-03-08T01:21:17;31.70;;;18.08;;
65665;SDS011;52365;47.464;18.976;2024-03-08T01:21:38;32.95;;;18.37;;
65665;SDS011;52365;47.464;18.976;2024-03-08T01:21:59;30.00;;;17.08;;
65665;SDS011;52365;47.464;18.976;2024-03-08T01:22:20;30.10;;;17.27;;
65665;SDS011;52365;47.464;18.976;2024-03-08T01:22:41;30.98;;;17.50;;
65665;SDS011;52365;47.464;18.976;2024-03-08T01:23:02;33.53;;;18.02;;
65665;SDS011;52365;47.464;18.976;2024-03-08T01:23:24;34.00;;;18.75;;
65665;SDS011;52365;47.464;18.976;2024-03-08T01:23:40;33.28;;;18.73;;
65665;SDS011;52365;47.464;18.976;2024-03-08T01:24:00;30.88;;;17.60;;
65665;SDS011;52365;47.464;18.976;2024-03-08T01:24:21;32.10;;;18.00;;
65665;SDS011;52365;47.464;18.976;2024-03-08T01:24:42;32.20;;;17.58;;
65665;SDS011;52365;47.464;18.976;2024-03-08T01:25:03;33.22;;;17.62;;
65665;SDS011;52365;47.464;18.976;2024-03-08T01:25:25;33.67;;;18.08;;
65665;SDS011;52365;47.464;18.976;2024-03-08T01:25:46;32.72;;;18.17;;
65665;SDS011;52365;47.464;18.976;2024-03-08T01:26:07;30.75;;;17.73;;
65665;SDS011;52365;47.464;18.976;2024-03-08T01:26:28;33.70;;;18.75;;
65665;SDS011;52365;47.464;18.976;2024-03-08T01:26:49;33.90;;;18.65;;
65665;SDS011;52365;47.464;18.976;2024-03-08T01:27:10;32.97;;;17.95;;
65665;SDS011;52365;47.464;18.976;2024-03-08T01:27:33;33.17;;;18.20;;
65665;SDS011;52365;47.464;18.976;2024-03-08T01:27:57;33.65;;;18.67;;
65665;SDS011;52365;47.464;18.976;2024-03-08T01:28:18;33.17;;;18.12;;
65665;SDS011;52365;47.464;18.976;2024-03-08T01:28:39;35.25;;;18.40;;
65665;SDS011;52365;47.464;18.976;2024-03-08T01:29:00;34.50;;;18.33;;
65665;SDS011;52365;47.464;18.976;2024-03-08T01:29:18;33.63;;;18.58;;
65665;SDS011;52365;47.464;18.976;2024-03-08T01:29:39;33.33;;;18.83;;
65665;SDS011;52365;47.464;18.976;2024-03-08T01:30:00;35.72;;;19.00;;
65665;SDS011;52365;47.464;18.976;2024-03-08T01:30:21;37.60;;;18.60;;
65665;SDS011;52365;47.464;18.976;2024-03-08T01:30:42;36.10;;;18.48;;
65665;SDS011;52365;47.464;18.976;2024-03-08T01:31:03;33.03;;;18.35;;
65665;SDS011;52365;47.464;18.976;2024-03-08T01:31:25;33.67;;;18.75;;
65665;SDS011;52365;47.464;18.976;2024-03-08T01:31:46;33.83;;;18.50;;
65665;SDS011;52365;47.464;18.976;2024-03-08T01:32:07;33.78;;;18.35;;
65665;SDS011;52365;47.464;18.976;2024-03-08T01:32:28;33.70;;;18.27;;
65665;SDS011;52365;47.464;18.976;2024-03-08T01:32:48;36.22;;;18.87;;
65665;SDS011;52365;47.464;18.976;2024-03-08T01:33:09;36.20;;;18.83;;
65665;SDS011;52365;47.464;18.976;2024-03-08T01:33:30;31.00;;;17.83;;
65665;SDS011;52365;47.464;18.976;2024-03-08T01:33:52;32.33;;;18.62;;
65665;SDS011;52365;47.464;18.976;2024-03-08T01:34:13;32.15;;;18.23;;
65665;SDS011;52365;47.464;18.976;2024-03-08T01:34:34;34.15;;;18.30;;
65665;SDS011;52365;47.464;18.976;2024-03-08T01:34:55;32.75;;;18.42;;
65665;SDS011;52365;47.464;18.976;2024-03-08T01:35:16;34.58;;;18.70;;
65665;SDS011;52365;47.464;18.976;2024-03-08T01:35:38;31.80;;;18.42;;
65665;SDS011;52365;47.464;18.976;2024-03-08T01:36:02;32.20;;;18.42;;
65665;SDS011;52365;47.464;18.976;2024-03-08T01:36:23;33.38;;;18.90;;
65665;SDS011;52365;47.464;18.976;2024-03-08T01:36:45;33.45;;;18.85;;
65665;SDS011;52365;47.464;18.976;2024-03-08T01:37:06;33.70;;;18.30;;
65665;SDS011;52365;47.464;18.976;2024-03-08T01:37:22;32.05;;;18.10;;
65665;SDS011;52365;47.464;18.976;2024-03-08T01:37:43;33.58;;;18.62;;
65665;SDS011;52365;47.464;18.976;2024-03-08T01:38:04;31.60;;;18.25;;
65665;SDS011;52365;47.464;18.976;2024-03-08T01:38:25;33.58;;;18.15;;
65665;SDS011;52365;47.464;18.976;2024-03-08T01:38:46;36.17;;;19.00;;
65665;SDS011;52365;47.464;18.976;2024-03-08T01:39:07;35.58;;;19.67;;
65665;SDS011;52365;47.464;18.976;2024-03-08T01:39:28;34.92;;;19.02;;
65665;SDS011;52365;47.464;18.976;2024-03-08T01:39:49;32.17;;;17.98;;
65665;SDS011;52365;47.464;18.976;2024-03-08T01:40:10;34.50;;;18.40;;
65665;SDS011;52365;47.464;18.976;2024-03-08T01:40:31;36.08;;;19.23;;
65665;SDS011;52365;47.464;18.976;2024-03-08T01:40:52;35.42;;;19.42;;
65665;SDS011;52365;47.464;18.976;2024-03-08T01:41:13;33.00;;;19.17;;
65665;SDS011;52365;47.464;18.976;2024-03-08T01:41:34;35.40;;;18.80;;
65665;SDS011;52365;47.464;18.976;2024-03-08T01:41:56;38.00;;;19.23;;
65665;SDS011;52365;47.464;18.976;2024-03-08T01:42:17;35.53;;;20.48;;
65665;SDS011;52365;47.464;18.976;2024-03-08T01:42:39;36.78;;;20.48;;
65665;SDS011;52365;47.464;18.976;2024-03-08T01:43:15;39.03;;;20.75;;
65665;SDS011;52365;47.464;18.976;2024-03-08T01:43:40;38.13;;;20.75;;
65665;SDS011;52365;47.464;18.976;2024-03-08T01:44:02;37.15;;;21.15;;
65665;SDS011;52365;47.464;18.976;2024-03-08T01:44:23;36.83;;;20.60;;
65665;SDS011;52365;47.464;18.976;2024-03-08T01:44:45;38.50;;;21.42;;
65665;SDS011;52365;47.464;18.976;2024-03-08T01:45:06;40.75;;;21.62;;
65665;SDS011;52365;47.464;18.976;2024-03-08T01:45:27;37.38;;;21.40;;
65665;SDS011;52365;47.464;18.976;2024-03-08T01:45:48;39.40;;;21.83;;
65665;SDS011;52365;47.464;18.976;2024-03-08T01:46:09;40.45;;;21.23;;
65665;SDS011;52365;47.464;18.976;2024-03-08T01:46:33;39.85;;;20.88;;
65665;SDS011;52365;47.464;18.976;2024-03-08T01:46:55;40.05;;;22.00;;
65665;SDS011;52365;47.464;18.976;2024-03-08T01:47:17;40.70;;;21.65;;
65665;SDS011;52365;47.464;18.976;2024-03-08T01:47:38;39.17;;;20.37;;
65665;SDS011;52365;47.464;18.976;2024-03-08T01:47:59;36.20;;;19.83;;
65665;SDS011;52365;47.464;18.976;2024-03-08T01:48:20;39.38;;;20.83;;
65665;SDS011;52365;47.464;18.976;2024-03-08T01:48:44;39.85;;;21.17;;
65665;SDS011;52365;47.464;18.976;2024-03-08T01:49:05;39.15;;;20.90;;
65665;SDS011;52365;47.464;18.976;2024-03-08T01:49:26;40.35;;;21.23;;
65665;SDS011;52365;47.464;18.976;2024-03-08T01:49:49;39.22;;;20.40;;
65665;SDS011;52365;47.464;18.976;2024-03-08T01:50:10;37.85;;;20.60;;
65665;SDS011;52365;47.464;18.976;2024-03-08T01:50:31;37.80;;;20.42;;
65665;SDS011;52365;47.464;18.976;2024-03-08T01:50:52;37.63;;;20.25;;
65665;SDS011;52365;47.464;18.976;2024-03-08T01:51:15;36.92;;;20.27;;
65665;SDS011;52365;47.464;18.976;2024-03-08T01:51:36;38.58;;;20.40;;
65665;SDS011;52365;47.464;18.976;2024-03-08T01:51:59;41.03;;;21.25;;
65665;SDS011;52365;47.464;18.976;2024-03-08T01:52:21;39.33;;;21.50;;
65665;SDS011;52365;47.464;18.976;2024-03-08T01:52:44;41.97;;;21.23;;
65665;SDS011;52365;47.464;18.976;2024-03-08T01:53:07;38.60;;;20.08;;
65665;SDS011;52365;47.464;18.976;2024-03-08T01:53:30;37.65;;;20.12;;
65665;SDS011;52365;47.464;18.976;2024-03-08T01:53:52;40.38;;;20.77;;
65665;SDS011;52365;47.464;18.976;2024-03-08T01:54:14;38.40;;;19.92;;
65665;SDS011;52365;47.464;18.976;2024-03-08T01:54:37;39.72;;;20.23;;
65665;SDS011;52365;47.464;18.976;2024-03-08T01:54:59;38.67;;;20.25;;
65665;SDS011;52365;47.464;18.976;2024-03-08T01:55:24;37.25;;;20.10;;
65665;SDS011;52365;47.464;18.976;2024-03-08T01:55:46;39.47;;;20.70;;
65665;SDS011;52365;47.464;18.976;2024-03-08T01:56:08;39.90;;;20.90;;
65665;SDS011;52365;47.464;18.976;2024-03-08T01:56:29;39.60;;;21.15;;
65665;SDS011;52365;47.464;18.976;2024-03-08T01:56:52;38.05;;;20.33;;
65665;SDS011;52365;47.464;18.976;2024-03-08T01:57:14;39.63;;;20.30;;
65665;SDS011;52365;47.464;18.976;2024-03-08T01:57:35;36.80;;;20.15;;
65665;SDS011;52365;47.464;18.976;2024-03-08T01:57:58;37.10;;;20.37;;
65665;SDS011;52365;47.464;18.976;2024-03-08T01:58:20;37.75;;;20.73;;
65665;SDS011;52365;47.464;18.976;2024-03-08T01:58:43;36.70;;;20.52;;
65665;SDS011;52365;47.464;18.976;2024-03-08T01:59:04;36.97;;;20.00;;
65665;SDS011;52365;47.464;18.976;2024-03-08T01:59:26;36.28;;;20.40;;
65665;SDS011;52365;47.464;18.976;2024-03-08T01:59:48;38.33;;;20.90;;
65665;SDS011;52365;47.464;18.976;2024-03-08T02:00:09;38.83;;;20.45;;
65665;SDS011;52365;47.464;18.976;2024-03-08T02:00:31;38.90;;;20.00;;
65665;SDS011;52365;47.464;18.976;2024-03-08T02:00:54;41.15;;;21.15;;
65665;SDS011;52365;47.464;18.976;2024-03-08T02:01:17;38.50;;;20.20;;
65665;SDS011;52365;47.464;18.976;2024-03-08T02:01:39;42.03;;;20.30;;
65665;SDS011;52365;47.464;18.976;2024-03-08T02:02:01;37.55;;;20.58;;
65665;SDS011;52365;47.464;18.976;2024-03-08T02:02:23;36.58;;;20.62;;
65665;SDS011;52365;47.464;18.976;2024-03-08T02:02:45;38.83;;;20.90;;
65665;SDS011;52365;47.464;18.976;2024-03-08T02:03:07;43.17;;;21.80;;